Time;durP1;ratioP1;P1;durP2;ratioP2;P2;SDS_P1;SDS_P2;PMS_P1;PMS_P2;Temp;Humidity;BMP_temperature;BMP_pressure;BME280_temperature;BME280_humidity;BME280_pressure;Samples;Min_cycle;Max_cycle;Signal;HPM_P1;HPM_P2
2022/03/01 00:00:44;;;;;;;18.23;9.47;;;3.60;99.90;;;;;;5072105;28;20186;-70
2022/03/01 00:03:09;;;;;;;17.57;9.13;;;3.70;99.90;;;;;;5072183;28;20280;-70
2022/03/01 00:05:35;;;;;;;14.87;8.60;;;3.70;99.90;;;;;;5071939;28;20294;-69
2022/03/01 00:08:01;;;;;;;11.73;9.00;;;3.70;99.90;;;;;;5071915;28;20179;-69
2022/03/01 00:10:27;;;;;;;14.67;9.23;;;3.60;99.90;;;;;;5071811;28;20813;-70
2022/03/01 00:12:53;;;;;;;17.60;8.73;;;3.50;99.90;;;;;;5071881;28;20236;-70
2022/03/01 00:15:18;;;;;;;14.73;9.53;;;3.40;99.90;;;;;;5071053;28;20185;-69
2022/03/01 00:17:44;;;;;;;14.97;9.40;;;3.40;99.90;;;;;;5071452;28;20202;-70
2022/03/01 00:20:11;;;;;;;14.40;8.93;;;3.30;99.90;;;;;;5071714;28;20230;-70
2022/03/01 00:22:36;;;;;;;14.00;8.80;;;3.20;99.90;;;;;;5071534;28;20688;-69
2022/03/01 00:25:03;;;;;;;16.50;9.93;;;3.10;99.90;;;;;;5071510;28;20457;-70
2022/03/01 00:27:29;;;;;;;13.93;9.23;;;3.10;99.90;;;;;;5071235;28;20292;-69
2022/03/01 00:29:55;;;;;;;15.40;8.80;;;3.00;99.90;;;;;;5071442;28;20984;-70
2022/03/01 00:32:21;;;;;;;15.13;9.80;;;3.00;99.90;;;;;;5071451;28;20475;-69
2022/03/01 00:34:47;;;;;;;12.67;8.90;;;2.90;99.90;;;;;;5071438;28;20419;-69
2022/03/01 00:37:13;;;;;;;13.37;8.07;;;2.90;99.90;;;;;;5070881;28;20201;-69
2022/03/01 00:39:39;;;;;;;12.17;8.60;;;2.90;99.90;;;;;;5071379;28;20184;-70
2022/03/01 00:42:05;;;;;;;11.77;8.77;;;2.90;99.90;;;;;;5071195;28;20193;-70
2022/03/01 00:44:30;;;;;;;12.30;8.60;;;2.80;99.90;;;;;;5071686;28;20427;-70
2022/03/01 00:46:56;;;;;;;18.80;9.60;;;2.80;99.90;;;;;;5070955;28;20521;-69
2022/03/01 00:49:22;;;;;;;11.80;8.33;;;2.80;99.90;;;;;;5071186;28;20196;-69
2022/03/01 00:51:48;;;;;;;15.67;8.60;;;2.80;99.90;;;;;;5070753;28;20220;-69
2022/03/01 00:54:14;;;;;;;11.93;8.33;;;2.80;99.90;;;;;;5071218;28;20261;-69
2022/03/01 00:56:39;;;;;;;12.47;8.23;;;2.80;99.90;;;;;;5070668;28;20201;-69
2022/03/01 00:59:05;;;;;;;13.70;8.67;;;2.80;99.90;;;;;;5071084;28;20444;-70
2022/03/01 01:01:31;;;;;;;12.80;9.87;;;2.70;99.90;;;;;;5071029;28;20189;-69
2022/03/01 01:03:57;;;;;;;13.90;8.57;;;2.70;99.90;;;;;;5070967;28;20541;-69
2022/03/01 01:06:22;;;;;;;14.47;10.27;;;2.70;99.90;;;;;;5070589;28;20213;-69
2022/03/01 01:08:48;;;;;;;17.50;8.80;;;2.70;99.90;;;;;;5070853;28;20217;-70
2022/03/01 01:11:14;;;;;;;12.63;9.13;;;2.70;99.90;;;;;;5070861;28;20557;-69
2022/03/01 01:13:40;;;;;;;13.77;9.10;;;2.70;99.90;;;;;;5070765;28;20644;-70
2022/03/01 01:16:06;;;;;;;12.93;9.63;;;2.70;99.90;;;;;;5070670;28;20270;-70
2022/03/01 01:18:32;;;;;;;12.40;8.30;;;2.80;99.90;;;;;;5070721;28;20797;-71
2022/03/01 01:20:58;;;;;;;14.23;9.13;;;2.80;99.90;;;;;;5070677;28;20190;-69
2022/03/01 01:23:23;;;;;;;15.80;9.17;;;2.80;99.90;;;;;;5070690;28;20646;-70
2022/03/01 01:25:49;;;;;;;14.57;8.73;;;2.80;99.90;;;;;;5070720;28;20449;-70
2022/03/01 01:28:16;;;;;;;13.43;9.70;;;2.70;99.90;;;;;;5070297;28;20182;-70
2022/03/01 01:30:42;;;;;;;15.50;8.37;;;2.70;99.90;;;;;;5070475;28;20190;-70
2022/03/01 01:33:07;;;;;;;14.60;8.97;;;2.60;99.90;;;;;;5070525;28;20776;-69
2022/03/01 01:35:36;;;;;;;15.83;8.70;;;2.50;99.90;;;;;;5070486;28;20186;-69
2022/03/01 01:38:02;;;;;;;15.00;9.43;;;2.50;99.90;;;;;;5087072;28;20419;-69
2022/03/01 01:40:31;;;;;;;13.63;8.30;;;2.40;99.90;;;;;;5070682;28;20408;-71
2022/03/01 01:42:58;;;;;;;12.73;9.07;;;2.40;99.90;;;;;;5070431;28;20416;-69
2022/03/01 01:45:25;;;;;;;15.23;8.77;;;2.30;99.90;;;;;;5070358;28;20421;-69
2022/03/01 01:47:52;;;;;;;12.07;8.13;;;2.30;99.90;;;;;;5070261;28;20890;-71
2022/03/01 01:50:19;;;;;;;12.60;8.07;;;2.30;99.90;;;;;;5070367;28;20468;-70
2022/03/01 01:52:46;;;;;;;14.27;8.67;;;2.30;99.90;;;;;;5070338;28;20905;-68
2022/03/01 01:55:13;;;;;;;13.63;8.90;;;2.40;99.90;;;;;;5070195;28;20504;-69
2022/03/01 01:57:39;;;;;;;13.27;9.03;;;2.40;99.90;;;;;;5070033;28;20432;-70
2022/03/01 02:00:06;;;;;;;11.13;8.00;;;2.30;99.90;;;;;;5070137;28;20813;-69
2022/03/01 02:02:32;;;;;;;13.33;8.10;;;2.20;99.90;;;;;;5070223;28;20178;-70
2022/03/01 02:04:59;;;;;;;16.43;8.13;;;2.20;99.90;;;;;;5070155;28;20422;-69
2022/03/01 02:07:25;;;;;;;13.73;8.47;;;2.20;99.90;;;;;;5069934;28;20996;-69
2022/03/01 02:09:51;;;;;;;12.00;8.20;;;2.10;99.90;;;;;;5070073;28;20459;-69
2022/03/01 02:12:17;;;;;;;12.70;8.00;;;2.10;99.90;;;;;;5070106;28;20549;-69
2022/03/01 02:14:42;;;;;;;15.87;8.53;;;2.00;99.90;;;;;;5070015;28;21101;-69
2022/03/01 02:17:10;;;;;;;16.57;7.50;;;2.00;99.90;;;;;;5069754;28;20266;-69
2022/03/01 02:19:37;;;;;;;14.23;7.90;;;2.00;99.90;;;;;;5070003;28;20183;-69
2022/03/01 02:22:06;;;;;;;11.90;8.63;;;1.90;99.90;;;;;;5070231;28;20790;-70
2022/03/01 02:24:32;;;;;;;13.93;8.03;;;2.00;99.90;;;;;;5069946;28;20802;-70
2022/03/01 02:27:01;;;;;;;14.97;9.20;;;2.00;99.90;;;;;;5069715;28;20447;-70
2022/03/01 02:29:27;;;;;;;10.73;8.60;;;2.10;99.90;;;;;;5069937;28;20425;-70
2022/03/01 02:31:55;;;;;;;12.07;7.90;;;2.20;99.90;;;;;;5069777;28;20497;-70
2022/03/01 02:34:21;;;;;;;10.90;7.33;;;2.20;99.90;;;;;;5070066;28;20418;-69
2022/03/01 02:36:47;;;;;;;10.60;6.87;;;2.40;99.90;;;;;;5069564;28;20440;-69
2022/03/01 02:39:15;;;;;;;13.63;8.07;;;2.60;99.90;;;;;;5071429;28;20423;-69
2022/03/01 02:41:43;;;;;;;12.17;7.73;;;2.70;99.90;;;;;;5073589;28;20801;-69
2022/03/01 02:44:10;;;;;;;10.17;6.40;;;2.80;99.90;;;;;;5073500;28;20422;-70
2022/03/01 02:46:36;;;;;;;10.47;6.37;;;3.00;99.90;;;;;;5073206;28;20439;-69
2022/03/01 02:49:02;;;;;;;8.47;6.07;;;3.10;99.90;;;;;;5073506;28;20919;-69
2022/03/01 02:51:28;;;;;;;16.53;7.60;;;3.20;99.90;;;;;;5073334;28;20198;-69
2022/03/01 02:53:54;;;;;;;10.83;6.63;;;3.20;99.90;;;;;;5073380;28;20674;-70
2022/03/01 02:56:21;;;;;;;12.03;6.33;;;3.30;99.90;;;;;;5073156;28;20502;-69
2022/03/01 02:58:46;;;;;;;8.37;5.87;;;3.40;99.90;;;;;;5072985;28;20193;-70
2022/03/01 03:01:12;;;;;;;11.80;6.67;;;3.50;99.90;;;;;;5073193;28;20761;-69
2022/03/01 03:03:38;;;;;;;9.47;6.60;;;3.60;99.90;;;;;;5073201;28;20186;-69
2022/03/01 03:06:04;;;;;;;13.67;7.00;;;3.70;99.90;;;;;;5073189;28;20203;-69
2022/03/01 03:08:30;;;;;;;11.93;6.77;;;3.80;99.90;;;;;;5072870;28;20269;-70
2022/03/01 03:10:57;;;;;;;11.43;6.90;;;3.80;99.90;;;;;;5072990;28;20461;-69
2022/03/01 03:13:24;;;;;;;10.73;6.53;;;3.90;99.90;;;;;;5072874;28;20416;-69
2022/03/01 03:15:51;;;;;;;10.00;6.57;;;3.90;99.90;;;;;;5072952;28;20429;-70
2022/03/01 03:18:17;;;;;;;9.37;5.80;;;4.00;99.90;;;;;;5072720;28;20449;-70
2022/03/01 03:20:43;;;;;;;11.90;7.50;;;4.00;99.90;;;;;;5072943;28;20415;-70
2022/03/01 03:23:10;;;;;;;10.97;6.90;;;4.10;99.90;;;;;;5072792;28;20414;-70
2022/03/01 03:25:36;;;;;;;9.43;5.90;;;4.10;99.90;;;;;;5072740;28;20917;-70
2022/03/01 03:28:02;;;;;;;9.97;6.60;;;4.10;99.90;;;;;;5072442;28;20418;-70
2022/03/01 03:30:28;;;;;;;8.70;6.43;;;4.10;99.90;;;;;;5072717;28;20505;-69
2022/03/01 03:32:54;;;;;;;10.37;7.20;;;4.10;99.90;;;;;;5072665;28;20495;-70
2022/03/01 03:35:20;;;;;;;9.40;6.33;;;4.10;99.90;;;;;;5072729;28;20422;-70
2022/03/01 03:37:46;;;;;;;11.23;7.07;;;4.10;99.90;;;;;;5089170;28;20260;-69
2022/03/01 03:40:12;;;;;;;13.53;7.20;;;4.10;99.90;;;;;;5072789;28;20570;-70
2022/03/01 03:42:39;;;;;;;10.73;6.73;;;4.10;99.90;;;;;;5072401;28;20428;-70
2022/03/01 03:45:05;;;;;;;9.40;5.80;;;4.10;99.90;;;;;;5072522;28;20464;-69
2022/03/01 03:47:31;;;;;;;9.83;6.80;;;4.10;99.90;;;;;;5072083;28;20968;-70
2022/03/01 03:49:57;;;;;;;9.70;6.70;;;4.10;99.90;;;;;;5071610;28;20409;-69
2022/03/01 03:52:23;;;;;;;10.97;6.70;;;4.10;99.90;;;;;;5072129;28;20469;-69
2022/03/01 03:54:50;;;;;;;9.83;6.67;;;4.10;99.90;;;;;;5072238;28;20770;-70
2022/03/01 03:57:16;;;;;;;8.17;6.20;;;4.10;99.90;;;;;;5071988;28;20532;-69
2022/03/01 03:59:42;;;;;;;12.33;7.53;;;4.10;99.90;;;;;;5072125;28;20462;-70
2022/03/01 04:02:08;;;;;;;10.43;6.53;;;4.10;99.90;;;;;;5072358;28;20995;-70
2022/03/01 04:04:34;;;;;;;12.00;6.77;;;4.10;99.90;;;;;;5072344;28;20184;-70
2022/03/01 04:07:00;;;;;;;11.40;7.67;;;4.10;99.90;;;;;;5072037;28;20248;-70
2022/03/01 04:09:25;;;;;;;8.93;6.10;;;4.20;99.90;;;;;;5071931;28;20422;-70
2022/03/01 04:11:51;;;;;;;9.47;6.63;;;4.10;99.90;;;;;;5071847;28;20242;-70
2022/03/01 04:14:17;;;;;;;10.73;6.77;;;4.20;99.90;;;;;;5072012;28;20175;-70
2022/03/01 04:16:44;;;;;;;11.50;7.23;;;4.20;99.90;;;;;;5071532;28;20197;-70
2022/03/01 04:19:10;;;;;;;11.30;5.97;;;4.20;99.90;;;;;;5071824;28;20175;-70
2022/03/01 04:21:37;;;;;;;9.47;6.33;;;4.20;99.90;;;;;;5071735;28;20894;-70
2022/03/01 04:24:04;;;;;;;9.83;6.43;;;4.20;99.90;;;;;;5071824;28;20457;-70
2022/03/01 04:26:30;;;;;;;10.23;6.53;;;4.20;99.90;;;;;;5071607;28;20449;-70
2022/03/01 04:28:55;;;;;;;8.67;6.20;;;4.20;99.90;;;;;;5071642;28;20416;-70
2022/03/01 04:31:22;;;;;;;13.17;7.70;;;4.20;99.90;;;;;;5071440;28;20246;-71
2022/03/01 04:33:48;;;;;;;9.80;6.47;;;4.20;99.90;;;;;;5071474;28;20652;-69
2022/03/01 04:36:15;;;;;;;9.83;6.80;;;4.20;99.90;;;;;;5071200;28;20433;-70
2022/03/01 04:38:43;;;;;;;8.23;6.20;;;4.20;99.90;;;;;;5055025;28;20453;-70
2022/03/01 04:41:09;;;;;;;9.73;6.90;;;4.20;99.90;;;;;;5071390;28;20856;-70
2022/03/01 04:43:35;;;;;;;10.20;6.90;;;4.20;99.90;;;;;;5071386;28;20459;-70
2022/03/01 04:46:02;;;;;;;12.00;5.93;;;4.20;99.90;;;;;;5071068;28;20483;-70
2022/03/01 04:48:27;;;;;;;10.30;6.23;;;4.10;99.90;;;;;;5071106;28;20712;-70
2022/03/01 04:50:53;;;;;;;12.90;6.70;;;4.10;99.90;;;;;;5071186;28;20493;-69
2022/03/01 04:53:19;;;;;;;8.63;6.20;;;4.10;99.90;;;;;;5070865;28;20414;-69
2022/03/01 04:55:45;;;;;;;11.33;6.80;;;4.10;99.90;;;;;;5070941;28;20443;-70
2022/03/01 04:58:11;;;;;;;11.73;6.33;;;4.00;99.90;;;;;;5070677;28;20175;-69
2022/03/01 05:00:37;;;;;;;7.93;6.27;;;4.00;99.90;;;;;;5071245;28;20432;-70
2022/03/01 05:03:03;;;;;;;10.57;6.00;;;4.00;99.90;;;;;;5070642;28;20186;-70
2022/03/01 05:05:29;;;;;;;11.10;6.33;;;4.00;99.90;;;;;;5070866;28;20448;-69
2022/03/01 05:07:55;;;;;;;12.40;6.80;;;3.90;99.90;;;;;;5070521;28;20835;-69
2022/03/01 05:10:21;;;;;;;8.47;5.37;;;3.90;99.90;;;;;;5070767;28;20793;-70
2022/03/01 05:12:48;;;;;;;8.53;5.87;;;3.90;99.90;;;;;;5070666;28;20593;-69
2022/03/01 05:15:15;;;;;;;10.97;6.23;;;3.90;99.90;;;;;;5070799;28;20458;-70
2022/03/01 05:17:41;;;;;;;9.73;6.23;;;3.90;99.90;;;;;;5070396;28;20441;-71
2022/03/01 05:20:08;;;;;;;10.27;6.87;;;3.90;99.90;;;;;;5070663;28;20514;-69
2022/03/01 05:22:35;;;;;;;10.10;5.87;;;3.90;99.90;;;;;;5070446;28;20432;-70
2022/03/01 05:25:01;;;;;;;13.20;6.43;;;3.80;99.90;;;;;;5070670;28;20474;-70
2022/03/01 05:27:28;;;;;;;12.60;6.83;;;3.80;99.90;;;;;;5070151;28;20985;-69
2022/03/01 05:29:54;;;;;;;8.90;7.20;;;3.80;99.90;;;;;;5070637;28;20417;-70
2022/03/01 05:32:20;;;;;;;12.43;7.43;;;3.80;99.90;;;;;;5070464;28;20468;-70
2022/03/01 05:34:46;;;;;;;7.73;6.40;;;3.80;99.90;;;;;;5070609;28;20917;-69
2022/03/01 05:37:12;;;;;;;10.50;7.00;;;3.80;99.90;;;;;;5086965;28;20459;-70
2022/03/01 05:39:41;;;;;;;10.43;5.97;;;3.80;99.90;;;;;;5070397;28;20650;-70
2022/03/01 05:42:08;;;;;;;14.53;7.63;;;3.90;99.90;;;;;;5070467;28;20510;-70
2022/03/01 05:44:34;;;;;;;10.70;7.53;;;3.80;99.90;;;;;;5070474;28;20422;-70
2022/03/01 05:47:00;;;;;;;14.77;6.70;;;3.90;99.90;;;;;;5070127;28;20476;-70
2022/03/01 05:49:26;;;;;;;11.50;7.37;;;3.80;99.90;;;;;;5070227;28;20433;-69
2022/03/01 05:51:52;;;;;;;11.37;6.37;;;3.80;99.90;;;;;;5070213;28;20479;-70
2022/03/01 05:54:19;;;;;;;10.50;6.47;;;3.90;99.90;;;;;;5070313;28;20462;-70
2022/03/01 05:56:44;;;;;;;10.67;7.20;;;3.90;99.90;;;;;;5070078;28;20530;-70
2022/03/01 05:59:10;;;;;;;10.27;6.23;;;3.90;99.90;;;;;;5069984;28;20535;-70
2022/03/01 06:01:36;;;;;;;10.03;6.50;;;3.90;99.90;;;;;;5070227;28;20194;-70
2022/03/01 06:04:02;;;;;;;9.47;6.20;;;3.90;99.90;;;;;;5070303;28;20449;-69
2022/03/01 06:06:31;;;;;;;11.33;7.17;;;3.90;99.90;;;;;;5069821;28;20453;-69
2022/03/01 06:08:57;;;;;;;11.07;7.13;;;3.90;99.90;;;;;;5070278;28;20198;-69
2022/03/01 06:11:22;;;;;;;15.10;6.73;;;3.90;99.90;;;;;;5070017;28;20836;-70
2022/03/01 06:13:48;;;;;;;13.63;7.37;;;3.90;99.90;;;;;;5071199;28;20212;-70
2022/03/01 06:16:14;;;;;;;9.93;6.53;;;3.90;99.90;;;;;;5074010;28;21066;-70
2022/03/01 06:18:43;;;;;;;12.30;7.37;;;3.90;99.90;;;;;;5073915;28;20226;-69
2022/03/01 06:21:09;;;;;;;11.20;6.70;;;4.00;99.90;;;;;;5073964;28;20275;-70
2022/03/01 06:23:34;;;;;;;12.77;7.30;;;4.00;99.90;;;;;;5074051;28;20536;-69
2022/03/01 06:26:00;;;;;;;13.60;7.37;;;4.00;99.90;;;;;;5073818;28;20460;-69
2022/03/01 06:28:26;;;;;;;11.70;7.30;;;4.10;99.90;;;;;;5073777;28;20817;-69
2022/03/01 06:30:52;;;;;;;13.90;7.83;;;4.10;99.90;;;;;;5073798;28;20421;-70
2022/03/01 06:33:20;;;;;;;10.00;6.70;;;4.10;99.90;;;;;;5073750;28;20420;-69
2022/03/01 06:35:46;;;;;;;11.70;7.40;;;4.20;99.90;;;;;;5073971;28;20203;-69
2022/03/01 06:38:12;;;;;;;9.73;6.90;;;4.20;99.90;;;;;;5073914;28;20424;-70
2022/03/01 06:40:38;;;;;;;11.63;7.80;;;4.30;99.90;;;;;;5073657;28;20511;-69
2022/03/01 06:43:04;;;;;;;11.60;7.43;;;4.30;99.90;;;;;;5073790;28;20452;-70
2022/03/01 06:45:31;;;;;;;14.17;8.90;;;4.40;99.90;;;;;;5073455;28;20525;-69
2022/03/01 06:47:57;;;;;;;11.00;6.70;;;4.40;99.90;;;;;;5073337;28;20554;-70
2022/03/01 06:50:23;;;;;;;10.30;7.90;;;4.50;99.90;;;;;;5073480;28;20416;-69
2022/03/01 06:52:49;;;;;;;11.27;7.33;;;4.50;99.90;;;;;;5073418;28;20287;-70
2022/03/01 06:55:15;;;;;;;11.07;6.73;;;4.50;99.90;;;;;;5073328;28;20433;-70
2022/03/01 06:57:42;;;;;;;12.97;8.20;;;4.60;99.90;;;;;;5073095;28;20445;-70
2022/03/01 07:00:10;;;;;;;10.67;7.37;;;4.60;99.90;;;;;;5073492;28;20286;-68
2022/03/01 07:02:38;;;;;;;14.83;7.63;;;4.50;99.90;;;;;;5073143;28;20519;-69
2022/03/01 07:05:09;;;;;;;13.07;7.50;;;4.50;99.90;;;;;;5073246;28;20421;-70
2022/03/01 07:07:36;;;;;;;18.53;7.07;;;4.60;99.90;;;;;;5072971;28;20444;-70
2022/03/01 07:10:03;;;;;;;11.33;6.77;;;4.50;99.90;;;;;;5073209;28;20429;-70
2022/03/01 07:12:29;;;;;;;12.97;6.90;;;4.50;99.90;;;;;;5072929;28;20471;-69
2022/03/01 07:14:55;;;;;;;12.90;7.43;;;4.50;99.90;;;;;;5072981;28;21011;-70
2022/03/01 07:17:20;;;;;;;11.23;6.40;;;4.50;99.90;;;;;;5072680;28;20248;-71
2022/03/01 07:19:47;;;;;;;13.23;6.97;;;4.50;99.90;;;;;;5073037;28;20179;-71
2022/03/01 07:22:13;;;;;;;12.73;7.13;;;4.50;99.90;;;;;;5072864;28;20186;-70
2022/03/01 07:24:38;;;;;;;12.20;7.70;;;4.60;99.90;;;;;;5072729;28;20453;-70
2022/03/01 07:27:04;;;;;;;10.67;6.40;;;4.60;99.90;;;;;;5072580;28;20289;-70
2022/03/01 07:29:30;;;;;;;12.40;7.23;;;4.60;99.90;;;;;;5072600;28;20274;-72
2022/03/01 07:31:57;;;;;;;13.20;7.80;;;4.60;99.90;;;;;;5072775;28;20730;-70
2022/03/01 07:34:23;;;;;;;9.97;6.60;;;4.50;99.90;;;;;;5072675;28;20470;-71
2022/03/01 07:36:49;;;;;;;12.53;8.33;;;4.60;99.90;;;;;;5089231;28;20445;-71
2022/03/01 07:39:15;;;;;;;12.83;5.97;;;4.60;99.90;;;;;;5072530;28;20505;-70
2022/03/01 07:41:41;;;;;;;13.97;7.33;;;4.60;99.90;;;;;;5072585;28;20482;-70
2022/03/01 07:44:07;;;;;;;10.80;6.70;;;4.60;99.90;;;;;;5072422;28;20433;-70
2022/03/01 07:46:33;;;;;;;11.30;7.10;;;4.70;99.90;;;;;;5071847;28;20210;-71
2022/03/01 07:48:59;;;;;;;15.50;8.03;;;4.70;99.90;;;;;;5071773;28;20442;-72
2022/03/01 07:51:24;;;;;;;13.77;7.63;;;4.80;99.90;;;;;;5072271;28;20256;-70
2022/03/01 07:53:51;;;;;;;16.93;7.03;;;4.80;99.90;;;;;;5072173;28;20188;-70
2022/03/01 07:56:20;;;;;;;12.13;7.40;;;4.80;99.90;;;;;;5072109;28;20310;-71
2022/03/01 07:58:46;;;;;;;15.40;7.77;;;4.80;99.90;;;;;;5071800;28;20449;-71
2022/03/01 08:01:12;;;;;;;11.00;7.60;;;4.80;99.90;;;;;;5073512;28;20421;-70
2022/03/01 08:03:38;;;;;;;11.77;6.17;;;4.90;99.90;;;;;;5072160;28;20836;-70
2022/03/01 08:06:05;;;;;;;12.63;7.23;;;4.90;99.90;;;;;;5071914;28;20231;-71
2022/03/01 08:08:31;;;;;;;14.00;9.10;;;4.90;99.90;;;;;;5071897;28;20429;-71
2022/03/01 08:10:57;;;;;;;11.77;7.43;;;5.00;99.90;;;;;;5071902;28;20739;-70
2022/03/01 08:13:24;;;;;;;14.60;7.20;;;4.90;99.90;;;;;;5071724;28;20262;-71
2022/03/01 08:15:50;;;;;;;12.87;7.27;;;5.00;99.90;;;;;;5071640;28;20849;-72
2022/03/01 08:18:16;;;;;;;12.83;7.97;;;5.00;99.90;;;;;;5071582;28;20406;-71
2022/03/01 08:20:42;;;;;;;13.97;7.43;;;5.10;99.90;;;;;;5071631;28;20409;-71
2022/03/01 08:23:08;;;;;;;13.80;8.00;;;5.20;99.90;;;;;;5071961;28;20266;-71
2022/03/01 08:25:34;;;;;;;12.10;7.23;;;5.30;99.90;;;;;;5071431;28;20179;-70
2022/03/01 08:28:00;;;;;;;15.37;8.87;;;5.40;99.90;;;;;;5071237;28;20420;-72
2022/03/01 08:30:27;;;;;;;10.70;7.50;;;5.60;99.90;;;;;;5071324;28;20419;-71
2022/03/01 08:32:53;;;;;;;11.33;7.50;;;5.80;99.90;;;;;;5077487;28;20588;-70
2022/03/01 08:35:20;;;;;;;14.00;7.23;;;6.10;99.90;;;;;;5087745;28;20477;-71
2022/03/01 08:37:46;;;;;;;16.60;8.17;;;6.30;99.90;;;;;;5070191;28;20433;-71
2022/03/01 08:40:13;;;;;;;15.10;8.33;;;6.60;99.90;;;;;;5070836;28;20410;-70
2022/03/01 08:42:39;;;;;;;14.67;8.53;;;6.80;99.90;;;;;;5070285;28;20938;-70
2022/03/01 08:45:06;;;;;;;11.70;8.03;;;7.00;99.90;;;;;;5088297;28;20808;-70
2022/03/01 08:47:32;;;;;;;13.27;7.67;;;7.10;99.90;;;;;;5087509;28;20493;-70
2022/03/01 08:49:58;;;;;;;12.10;8.17;;;7.10;99.90;;;;;;5088048;28;20916;-70
2022/03/01 08:52:24;;;;;;;12.37;7.77;;;7.20;99.90;;;;;;5087612;28;20217;-71
2022/03/01 08:54:49;;;;;;;12.00;8.37;;;7.20;99.90;;;;;;5089852;28;20408;-71
2022/03/01 08:57:15;;;;;;;10.93;6.70;;;7.30;99.90;;;;;;5107516;28;20464;-71
2022/03/01 08:59:41;;;;;;;13.70;8.47;;;7.40;99.90;;;;;;5107437;28;20207;-71
2022/03/01 09:02:07;;;;;;;13.67;9.23;;;7.30;99.90;;;;;;5107445;28;20660;-70
2022/03/01 09:04:33;;;;;;;15.50;8.17;;;7.30;99.90;;;;;;5108333;28;20442;-70
2022/03/01 09:06:59;;;;;;;14.27;8.37;;;7.40;99.90;;;;;;5107594;28;20467;-72
2022/03/01 09:09:25;;;;;;;11.53;7.77;;;7.60;99.90;;;;;;5107863;28;20205;-72
2022/03/01 09:11:50;;;;;;;12.10;7.60;;;7.70;99.90;;;;;;5107669;28;20217;-71
2022/03/01 09:14:16;;;;;;;13.87;8.10;;;7.90;99.90;;;;;;5107914;28;20178;-71
2022/03/01 09:16:43;;;;;;;14.27;7.00;;;7.90;99.90;;;;;;5107271;28;20199;-71
2022/03/01 09:19:10;;;;;;;15.90;8.50;;;7.80;99.90;;;;;;5107938;28;20560;-70
2022/03/01 09:21:36;;;;;;;12.40;7.83;;;7.90;99.90;;;;;;5107574;28;20966;-70
2022/03/01 09:24:02;;;;;;;16.43;9.80;;;8.00;99.90;;;;;;5107577;28;20448;-71
2022/03/01 09:26:27;;;;;;;12.40;8.67;;;8.00;99.90;;;;;;5107224;28;20472;-71
2022/03/01 09:28:53;;;;;;;13.97;8.53;;;7.90;99.90;;;;;;5107719;28;20639;-71
2022/03/01 09:31:19;;;;;;;18.93;8.07;;;7.90;99.90;;;;;;5106922;28;20289;-70
2022/03/01 09:33:46;;;;;;;11.90;8.00;;;7.80;99.90;;;;;;5107767;28;20227;-72
2022/03/01 09:36:15;;;;;;;14.27;8.43;;;7.90;99.90;;;;;;5107252;28;20445;-70
2022/03/01 09:38:42;;;;;;;15.87;8.07;;;8.00;99.90;;;;;;5107175;28;20482;-71
2022/03/01 09:41:08;;;;;;;14.40;7.60;;;7.90;99.90;;;;;;5107377;28;20844;-71
2022/03/01 09:43:38;;;;;;;12.87;8.40;;;7.80;99.90;;;;;;5107580;28;20424;-72
2022/03/01 09:46:05;;;;;;;13.87;7.97;;;7.70;99.90;;;;;;5107165;28;20794;-71
2022/03/01 09:48:31;;;;;;;14.60;7.90;;;7.70;99.90;;;;;;5106265;28;20514;-70
2022/03/01 09:51:00;;;;;;;10.40;7.50;;;7.60;99.90;;;;;;5090542;28;20529;-71
2022/03/01 09:53:27;;;;;;;14.50;7.47;;;7.40;99.90;;;;;;5107057;28;20755;-71
2022/03/01 09:55:55;;;;;;;13.77;7.93;;;7.40;99.90;;;;;;5107243;28;20431;-71
2022/03/01 09:58:21;;;;;;;10.77;7.50;;;7.50;99.90;;;;;;5106969;28;20745;-70
2022/03/01 10:00:47;;;;;;;13.83;7.77;;;7.60;99.90;;;;;;5107202;28;20413;-71
2022/03/01 10:03:19;;;;;;;12.27;7.07;;;7.80;99.90;;;;;;5106913;28;20783;-71
2022/03/01 10:05:46;;;;;;;13.97;8.10;;;8.10;99.90;;;;;;5106724;28;21015;-71
2022/03/01 10:08:17;;;;;;;10.70;7.43;;;8.30;99.90;;;;;;5107159;28;20445;-71
2022/03/01 10:10:47;;;;;;;11.63;7.77;;;8.60;99.90;;;;;;5107014;28;20419;-71
2022/03/01 10:13:15;;;;;;;11.83;8.33;;;8.80;99.90;;;;;;5107284;28;20452;-72
2022/03/01 10:15:41;;;;;;;10.93;6.33;;;9.10;99.90;;;;;;5106659;28;20457;-72
2022/03/01 10:18:15;;;;;;;11.37;7.30;;;9.50;99.90;;;;;;5106894;28;20411;-72
2022/03/01 10:20:44;;;;;;;12.27;7.20;;;10.10;98.90;;;;;;5083667;28;20433;-70
2022/03/01 10:23:10;;;;;;;22.07;8.47;;;10.60;96.70;;;;;;5075763;28;20938;-72
2022/03/01 10:25:39;;;;;;;10.83;6.63;;;11.00;90.90;;;;;;5086447;28;20405;-71
2022/03/01 10:28:05;;;;;;;12.20;7.33;;;11.20;88.60;;;;;;5086640;28;20420;-71
2022/03/01 10:30:36;;;;;;;11.87;6.43;;;11.40;85.30;;;;;;5091461;28;20443;-72
2022/03/01 10:33:11;;;;;;;13.27;8.40;;;11.40;82.20;;;;;;5089578;28;20470;-71
2022/03/01 10:35:40;;;;;;;13.30;8.93;;;11.90;82.50;;;;;;5089571;28;20426;-71
2022/03/01 10:38:07;;;;;;;11.10;8.00;;;11.90;80.20;;;;;;5089886;28;20762;-71
2022/03/01 10:40:34;;;;;;;13.40;8.23;;;11.70;78.60;;;;;;5089899;28;20427;-71
2022/03/01 10:43:07;;;;;;;12.47;7.70;;;11.50;75.70;;;;;;5089883;28;20508;-72
2022/03/01 10:45:41;;;;;;;13.37;7.57;;;11.60;77.80;;;;;;5089749;28;20428;-71
2022/03/01 10:48:13;;;;;;;10.43;7.43;;;11.70;74.70;;;;;;5089768;28;20424;-70
2022/03/01 10:50:40;;;;;;;15.93;8.03;;;11.70;73.50;;;;;;5090064;28;20435;-71
2022/03/01 10:53:07;;;;;;;13.60;6.90;;;11.40;72.60;;;;;;5090121;28;20452;-68
2022/03/01 10:55:34;;;;;;;9.83;6.73;;;11.30;74.20;;;;;;5089817;28;20422;-68
2022/03/01 10:58:06;;;;;;;10.60;7.30;;;11.20;69.10;;;;;;5089755;28;20422;-68
2022/03/01 11:00:36;;;;;;;11.00;7.60;;;11.10;70.40;;;;;;5091609;28;20438;-68
2022/03/01 11:03:07;;;;;;;13.97;7.17;;;11.20;68.70;;;;;;5093966;28;20423;-68
2022/03/01 11:05:34;;;;;;;8.90;6.20;;;11.10;69.40;;;;;;5094055;28;20428;-69
2022/03/01 11:08:05;;;;;;;11.00;7.27;;;11.10;69.60;;;;;;5093154;28;20412;-68
2022/03/01 11:10:32;;;;;;;14.77;7.77;;;11.20;67.70;;;;;;5092770;28;20448;-68
2022/03/01 11:13:01;;;;;;;10.50;6.50;;;11.30;68.20;;;;;;5093074;28;20470;-68
2022/03/01 11:15:54;;;;;;;8.93;6.60;;;11.40;65.80;;;;;;5092937;28;20411;-68
2022/03/01 11:18:45;;;;;;;12.77;6.50;;;11.50;64.30;;;;;;5093100;28;20826;-69
2022/03/01 11:21:14;;;;;;;11.20;6.50;;;11.70;68.30;;;;;;5084438;28;20515;-70
2022/03/01 11:23:42;;;;;;;12.77;6.40;;;12.00;65.00;;;;;;5093097;28;20408;-70
2022/03/01 11:26:11;;;;;;;11.37;6.87;;;12.00;59.20;;;;;;5093083;28;20531;-71
2022/03/01 11:28:40;;;;;;;11.50;6.47;;;12.00;60.20;;;;;;5093277;28;20852;-70
2022/03/01 11:31:28;;;;;;;12.10;7.60;;;12.10;60.20;;;;;;5087136;28;20463;-69
2022/03/01 11:34:14;;;;;;;10.93;6.30;;;12.40;60.00;;;;;;5087807;28;20954;-70
2022/03/01 11:36:57;;;;;;;9.20;6.03;;;12.50;58.50;;;;;;5092470;28;20436;-72
2022/03/01 11:39:31;;;;;;;9.70;6.77;;;12.70;58.50;;;;;;5109483;28;20867;-71
2022/03/01 11:42:14;;;;;;;9.80;6.27;;;12.60;55.50;;;;;;5094596;28;20440;-72
2022/03/01 11:44:41;;;;;;;10.47;7.13;;;12.50;56.20;;;;;;5079398;28;20818;-71
2022/03/01 11:47:13;;;;;;;10.57;6.70;;;12.30;56.30;;;;;;5078794;28;20899;-71
2022/03/01 11:49:40;;;;;;;10.70;6.27;;;12.50;57.20;;;;;;5092626;28;20527;-71
2022/03/01 11:52:24;;;;;;;11.30;6.93;;;12.90;55.60;;;;;;5092621;28;20467;-72
2022/03/01 11:54:53;;;;;;;9.73;6.43;;;13.20;56.50;;;;;;5092554;28;20408;-71
2022/03/01 11:57:25;;;;;;;10.07;6.20;;;13.40;55.00;;;;;;5087415;28;20446;-70
2022/03/01 11:59:55;;;;;;;12.40;6.47;;;13.30;53.60;;;;;;5089051;28;20443;-71
2022/03/01 12:02:24;;;;;;;9.80;6.50;;;13.30;53.30;;;;;;5088903;28;20437;-71
2022/03/01 12:04:55;;;;;;;9.90;6.40;;;13.40;54.10;;;;;;5088832;28;20422;-71
2022/03/01 12:07:31;;;;;;;10.87;6.87;;;13.30;53.40;;;;;;5088459;28;20876;-71
2022/03/01 12:10:05;;;;;;;10.73;7.03;;;13.30;53.60;;;;;;5089001;28;20474;-71
2022/03/01 12:12:44;;;;;;;12.63;7.13;;;13.30;53.60;;;;;;5087742;28;20460;-71
2022/03/01 12:15:12;;;;;;;9.40;5.80;;;13.30;54.10;;;;;;5088811;28;20474;-71
2022/03/01 12:17:46;;;;;;;9.43;6.57;;;12.90;52.50;;;;;;5088359;28;20677;-71
2022/03/01 12:20:19;;;;;;;11.40;7.00;;;12.90;52.90;;;;;;5088750;28;20956;-71
2022/03/01 12:22:54;;;;;;;8.77;6.27;;;13.00;51.50;;;;;;5088627;28;20461;-71
2022/03/01 12:25:20;;;;;;;10.60;6.10;;;13.10;51.40;;;;;;5088653;28;20417;-71
2022/03/01 12:27:49;;;;;;;9.20;6.50;;;13.40;51.70;;;;;;5088292;28;20506;-71
2022/03/01 12:30:19;;;;;;;13.23;7.40;;;13.60;50.60;;;;;;5088948;28;20429;-71
2022/03/01 12:32:56;;;;;;;9.17;6.13;;;13.60;50.70;;;;;;5088469;28;20560;-72
2022/03/01 12:35:24;;;;;;;10.17;6.73;;;14.10;51.50;;;;;;5088370;28;20419;-71
2022/03/01 12:37:51;;;;;;;12.10;6.80;;;14.30;50.60;;;;;;5088052;28;20988;-71
2022/03/01 12:40:28;;;;;;;8.80;6.53;;;14.00;48.50;;;;;;5088331;28;20440;-71
2022/03/01 12:43:05;;;;;;;11.37;7.70;;;13.90;49.60;;;;;;5088558;28;20965;-72
2022/03/01 12:45:45;;;;;;;12.67;6.50;;;14.50;51.60;;;;;;5088097;28;20821;-71